Canaveral Air Station, Florida
Current Conditions -  °F | °C
As of 7:58 PM on Wednesday 26 Nov 2014 (Local Time) from KCOF Reporting Station
Clear Clear  
Wind Chill: 56°   Ceiling: Unl
Heat Index: 56°   Visibility: 10mi
Dew Point: 50°   Wind: 8mph
Humidity: 80%   Direction: 290°WNW
Pressure: 30.18"   Gusts: NA
Location:  28.2343°N, 80.6078°W
Report Text: KCOF 270058Z AUTO 29007KT 10SM CLR 14/10 A3018 RMK AO2 SLP224 T01360102
Loading
Personal Weather Stations






























Interactive Weather Map New forecast layout! Learn more

10-Day Weather Forecast

Advertisements
Track Severe Weather on mobile